Observations

82.2 °F / 27.9 °C
E at 13 MPH
79%
75.2°F / 24.0 °C
29.9" (1012 mb)
10 mile(s)
mostly cloudy
2017.03.27 1020 UTC

Observations

Surface


Raw METARs

2017/03/27 10:20
PKWA 271020Z AUTO 09011KT 10SM BKN019 BKN027 28/24 A2990 RMK AO2 T02790240

Translated METAR

Kwajalein, Bucholz AAF, Kwajalein KMR ATOL Airport, Marshall Islands (PKWA) 08-43N 167-44E 2M
Mar 27, 2017 - 06:20 AM EDT / 2017.03.27 1020 UTC
Wind: from the E (090 degrees) at 13 MPH (11 KT):0
Visibility: 10 mile(s):0
Sky conditions: mostly cloudy
Temperature: 82.2 F (27.9 C)
Dew Point: 75.2 F (24.0 C)
Relative Humidity: 79%
Pressure (altimeter): 29.9 in. Hg (1012 hPa)
ob: PKWA 271020Z AUTO 09011KT 10SM BKN019 BKN027 28/24 A2990 RMK AO2 T02790240
cycle: 10



Upper Air


Latest Skew-T

Skew T Diagram

Latest Data File